sensor_id;sensor_type;location;lat;lon;timestamp;P1;durP1;ratioP1;P2;durP2;ratioP2
41514;SDS011;27247;48.020;16.720;2023-10-09T00:03:23;7.65;;;3.13;;
41514;SDS011;27247;48.020;16.720;2023-10-09T00:07:34;5.68;;;3.50;;
41514;SDS011;27247;48.020;16.720;2023-10-09T00:11:44;5.10;;;3.20;;
41514;SDS011;27247;48.020;16.720;2023-10-09T00:15:55;5.97;;;3.35;;
41514;SDS011;27247;48.020;16.720;2023-10-09T00:20:11;10.52;;;3.80;;
41514;SDS011;27247;48.020;16.720;2023-10-09T00:24:32;6.67;;;3.90;;
41514;SDS011;27247;48.020;16.720;2023-10-09T00:28:43;5.13;;;3.58;;
41514;SDS011;27247;48.020;16.720;2023-10-09T00:32:54;5.68;;;2.85;;
41514;SDS011;27247;48.020;16.720;2023-10-09T00:37:17;9.35;;;3.75;;
41514;SDS011;27247;48.020;16.720;2023-10-09T00:41:35;4.68;;;3.45;;
41514;SDS011;27247;48.020;16.720;2023-10-09T00:45:45;10.87;;;3.97;;
41514;SDS011;27247;48.020;16.720;2023-10-09T00:49:57;9.43;;;3.83;;
41514;SDS011;27247;48.020;16.720;2023-10-09T00:54:10;7.78;;;4.00;;
41514;SDS011;27247;48.020;16.720;2023-10-09T00:58:24;8.70;;;3.90;;
41514;SDS011;27247;48.020;16.720;2023-10-09T01:02:37;6.43;;;3.88;;
41514;SDS011;27247;48.020;16.720;2023-10-09T01:06:52;6.70;;;3.55;;
41514;SDS011;27247;48.020;16.720;2023-10-09T01:11:18;5.93;;;3.55;;
41514;SDS011;27247;48.020;16.720;2023-10-09T01:15:28;6.00;;;3.55;;
41514;SDS011;27247;48.020;16.720;2023-10-09T01:19:54;4.65;;;3.20;;
41514;SDS011;27247;48.020;16.720;2023-10-09T01:24:06;8.25;;;3.65;;
41514;SDS011;27247;48.020;16.720;2023-10-09T01:28:19;7.30;;;3.55;;
41514;SDS011;27247;48.020;16.720;2023-10-09T01:32:29;8.27;;;3.40;;
41514;SDS011;27247;48.020;16.720;2023-10-09T01:36:40;4.10;;;3.00;;
41514;SDS011;27247;48.020;16.720;2023-10-09T01:40:51;8.38;;;3.28;;
41514;SDS011;27247;48.020;16.720;2023-10-09T01:45:02;9.40;;;3.72;;
41514;SDS011;27247;48.020;16.720;2023-10-09T01:49:22;7.30;;;3.05;;
41514;SDS011;27247;48.020;16.720;2023-10-09T01:53:39;6.18;;;3.08;;
41514;SDS011;27247;48.020;16.720;2023-10-09T01:57:49;4.33;;;2.40;;
41514;SDS011;27247;48.020;16.720;2023-10-09T02:02:00;5.25;;;2.60;;
41514;SDS011;27247;48.020;16.720;2023-10-09T02:06:22;7.65;;;3.05;;
41514;SDS011;27247;48.020;16.720;2023-10-09T02:10:36;4.10;;;2.88;;
41514;SDS011;27247;48.020;16.720;2023-10-09T02:14:47;4.82;;;3.00;;
41514;SDS011;27247;48.020;16.720;2023-10-09T02:18:59;6.55;;;3.08;;
41514;SDS011;27247;48.020;16.720;2023-10-09T02:23:09;10.60;;;3.30;;
41514;SDS011;27247;48.020;16.720;2023-10-09T02:27:23;6.45;;;3.38;;
41514;SDS011;27247;48.020;16.720;2023-10-09T02:31:50;8.93;;;3.40;;
41514;SDS011;27247;48.020;16.720;2023-10-09T02:36:10;4.82;;;2.97;;
41514;SDS011;27247;48.020;16.720;2023-10-09T02:40:23;5.03;;;3.08;;
41514;SDS011;27247;48.020;16.720;2023-10-09T02:44:44;9.75;;;3.15;;
41514;SDS011;27247;48.020;16.720;2023-10-09T02:49:01;6.07;;;3.22;;
41514;SDS011;27247;48.020;16.720;2023-10-09T02:53:16;6.30;;;3.17;;
41514;SDS011;27247;48.020;16.720;2023-10-09T02:57:30;7.22;;;3.35;;
41514;SDS011;27247;48.020;16.720;2023-10-09T03:01:46;10.15;;;2.97;;
41514;SDS011;27247;48.020;16.720;2023-10-09T03:05:56;5.80;;;3.17;;
41514;SDS011;27247;48.020;16.720;2023-10-09T03:10:07;4.13;;;2.50;;
41514;SDS011;27247;48.020;16.720;2023-10-09T03:14:22;7.07;;;3.25;;
41514;SDS011;27247;48.020;16.720;2023-10-09T03:18:38;8.68;;;2.80;;
41514;SDS011;27247;48.020;16.720;2023-10-09T03:22:49;7.53;;;2.75;;
41514;SDS011;27247;48.020;16.720;2023-10-09T03:26:59;7.45;;;2.78;;
41514;SDS011;27247;48.020;16.720;2023-10-09T03:31:11;3.95;;;2.35;;
41514;SDS011;27247;48.020;16.720;2023-10-09T03:35:22;5.45;;;2.70;;
41514;SDS011;27247;48.020;16.720;2023-10-09T03:39:37;8.93;;;2.58;;
41514;SDS011;27247;48.020;16.720;2023-10-09T03:43:57;7.25;;;2.45;;
41514;SDS011;27247;48.020;16.720;2023-10-09T03:48:08;4.72;;;2.60;;
41514;SDS011;27247;48.020;16.720;2023-10-09T03:52:31;5.78;;;2.80;;
41514;SDS011;27247;48.020;16.720;2023-10-09T03:56:41;7.40;;;2.97;;
41514;SDS011;27247;48.020;16.720;2023-10-09T04:00:52;6.27;;;2.80;;
41514;SDS011;27247;48.020;16.720;2023-10-09T04:05:02;11.23;;;3.08;;
41514;SDS011;27247;48.020;16.720;2023-10-09T04:09:15;4.70;;;2.75;;
41514;SDS011;27247;48.020;16.720;2023-10-09T04:13:28;5.78;;;3.20;;
41514;SDS011;27247;48.020;16.720;2023-10-09T04:17:50;6.93;;;3.03;;
41514;SDS011;27247;48.020;16.720;2023-10-09T04:22:02;4.18;;;2.63;;
41514;SDS011;27247;48.020;16.720;2023-10-09T04:26:16;6.75;;;2.70;;
41514;SDS011;27247;48.020;16.720;2023-10-09T04:30:30;7.72;;;3.53;;
41514;SDS011;27247;48.020;16.720;2023-10-09T04:34:50;6.43;;;3.35;;
41514;SDS011;27247;48.020;16.720;2023-10-09T04:39:27;10.68;;;3.45;;
41514;SDS011;27247;48.020;16.720;2023-10-09T04:43:40;10.35;;;3.90;;
41514;SDS011;27247;48.020;16.720;2023-10-09T04:47:54;5.07;;;3.10;;
41514;SDS011;27247;48.020;16.720;2023-10-09T04:52:17;8.57;;;4.20;;
41514;SDS011;27247;48.020;16.720;2023-10-09T04:56:40;9.82;;;3.85;;
41514;SDS011;27247;48.020;16.720;2023-10-09T05:01:02;10.30;;;4.15;;
41514;SDS011;27247;48.020;16.720;2023-10-09T05:05:14;6.10;;;4.07;;
41514;SDS011;27247;48.020;16.720;2023-10-09T05:09:51;7.15;;;3.58;;
41514;SDS011;27247;48.020;16.720;2023-10-09T05:14:19;6.28;;;3.58;;
41514;SDS011;27247;48.020;16.720;2023-10-09T05:18:37;6.97;;;3.90;;
41514;SDS011;27247;48.020;16.720;2023-10-09T05:22:47;6.22;;;3.35;;
41514;SDS011;27247;48.020;16.720;2023-10-09T05:27:07;8.40;;;3.72;;
41514;SDS011;27247;48.020;16.720;2023-10-09T05:31:29;5.05;;;3.42;;
41514;SDS011;27247;48.020;16.720;2023-10-09T05:36:06;8.52;;;3.88;;
41514;SDS011;27247;48.020;16.720;2023-10-09T05:40:36;6.00;;;3.22;;
41514;SDS011;27247;48.020;16.720;2023-10-09T05:44:46;6.90;;;3.67;;
41514;SDS011;27247;48.020;16.720;2023-10-09T05:48:56;5.70;;;3.37;;
41514;SDS011;27247;48.020;16.720;2023-10-09T05:53:19;7.93;;;3.72;;
41514;SDS011;27247;48.020;16.720;2023-10-09T05:57:53;5.28;;;3.25;;
41514;SDS011;27247;48.020;16.720;2023-10-09T06:02:39;9.05;;;4.10;;
41514;SDS011;27247;48.020;16.720;2023-10-09T06:07:08;6.80;;;3.97;;
41514;SDS011;27247;48.020;16.720;2023-10-09T06:11:23;9.45;;;3.50;;
41514;SDS011;27247;48.020;16.720;2023-10-09T06:16:00;15.07;;;3.40;;
41514;SDS011;27247;48.020;16.720;2023-10-09T06:20:29;7.22;;;3.33;;
41514;SDS011;27247;48.020;16.720;2023-10-09T06:24:58;6.28;;;3.22;;
41514;SDS011;27247;48.020;16.720;2023-10-09T06:29:19;6.57;;;3.00;;
41514;SDS011;27247;48.020;16.720;2023-10-09T06:33:45;8.35;;;2.75;;
41514;SDS011;27247;48.020;16.720;2023-10-09T06:38:15;8.35;;;2.90;;
41514;SDS011;27247;48.020;16.720;2023-10-09T06:42:32;5.05;;;2.78;;
41514;SDS011;27247;48.020;16.720;2023-10-09T06:46:51;7.85;;;2.83;;
41514;SDS011;27247;48.020;16.720;2023-10-09T06:51:03;5.50;;;2.35;;
41514;SDS011;27247;48.020;16.720;2023-10-09T06:55:26;8.77;;;2.38;;
41514;SDS011;27247;48.020;16.720;2023-10-09T06:59:44;9.30;;;3.13;;
41514;SDS011;27247;48.020;16.720;2023-10-09T07:04:14;4.00;;;2.50;;
41514;SDS011;27247;48.020;16.720;2023-10-09T07:08:43;6.57;;;2.53;;
41514;SDS011;27247;48.020;16.720;2023-10-09T07:13:08;6.13;;;2.72;;
41514;SDS011;27247;48.020;16.720;2023-10-09T07:17:18;4.18;;;2.45;;
41514;SDS011;27247;48.020;16.720;2023-10-09T07:21:43;7.18;;;2.50;;
41514;SDS011;27247;48.020;16.720;2023-10-09T07:26:02;7.72;;;2.50;;
41514;SDS011;27247;48.020;16.720;2023-10-09T07:30:28;7.22;;;2.85;;
41514;SDS011;27247;48.020;16.720;2023-10-09T07:34:41;4.30;;;2.30;;
41514;SDS011;27247;48.020;16.720;2023-10-09T07:39:04;5.20;;;2.70;;
41514;SDS011;27247;48.020;16.720;2023-10-09T07:43:25;7.97;;;2.80;;
41514;SDS011;27247;48.020;16.720;2023-10-09T07:47:46;7.28;;;2.50;;
41514;SDS011;27247;48.020;16.720;2023-10-09T07:52:11;6.93;;;2.88;;
41514;SDS011;27247;48.020;16.720;2023-10-09T07:56:25;4.45;;;2.28;;
41514;SDS011;27247;48.020;16.720;2023-10-09T08:00:40;7.82;;;2.60;;
41514;SDS011;27247;48.020;16.720;2023-10-09T08:09:32;4.93;;;2.42;;
41514;SDS011;27247;48.020;16.720;2023-10-09T08:13:58;6.93;;;2.53;;
41514;SDS011;27247;48.020;16.720;2023-10-09T08:18:12;6.05;;;2.25;;
41514;SDS011;27247;48.020;16.720;2023-10-09T08:22:29;6.28;;;2.50;;
41514;SDS011;27247;48.020;16.720;2023-10-09T08:27:00;5.97;;;2.38;;
41514;SDS011;27247;48.020;16.720;2023-10-09T08:31:31;7.13;;;2.20;;
41514;SDS011;27247;48.020;16.720;2023-10-09T08:35:45;4.70;;;2.28;;
41514;SDS011;27247;48.020;16.720;2023-10-09T08:39:57;6.43;;;1.80;;
41514;SDS011;27247;48.020;16.720;2023-10-09T08:44:08;6.47;;;2.30;;
41514;SDS011;27247;48.020;16.720;2023-10-09T08:48:22;4.78;;;2.33;;
41514;SDS011;27247;48.020;16.720;2023-10-09T08:52:36;4.13;;;1.75;;
41514;SDS011;27247;48.020;16.720;2023-10-09T08:56:47;9.20;;;2.42;;
41514;SDS011;27247;48.020;16.720;2023-10-09T09:01:01;5.97;;;1.95;;
41514;SDS011;27247;48.020;16.720;2023-10-09T09:05:18;11.38;;;2.22;;
41514;SDS011;27247;48.020;16.720;2023-10-09T09:09:30;5.60;;;2.92;;
41514;SDS011;27247;48.020;16.720;2023-10-09T09:13:43;12.60;;;2.45;;
41514;SDS011;27247;48.020;16.720;2023-10-09T09:18:04;6.38;;;2.20;;
41514;SDS011;27247;48.020;16.720;2023-10-09T09:22:16;5.53;;;2.42;;
41514;SDS011;27247;48.020;16.720;2023-10-09T09:26:32;3.75;;;2.15;;
41514;SDS011;27247;48.020;16.720;2023-10-09T09:31:03;16.80;;;2.83;;
41514;SDS011;27247;48.020;16.720;2023-10-09T09:35:23;7.85;;;2.50;;
41514;SDS011;27247;48.020;16.720;2023-10-09T09:39:37;4.68;;;2.10;;
41514;SDS011;27247;48.020;16.720;2023-10-09T09:43:48;4.17;;;1.90;;
41514;SDS011;27247;48.020;16.720;2023-10-09T09:48:04;10.85;;;2.50;;
41514;SDS011;27247;48.020;16.720;2023-10-09T09:52:18;5.80;;;2.40;;
41514;SDS011;27247;48.020;16.720;2023-10-09T09:56:29;7.88;;;2.28;;
41514;SDS011;27247;48.020;16.720;2023-10-09T10:00:41;6.25;;;2.40;;
41514;SDS011;27247;48.020;16.720;2023-10-09T10:04:52;20.83;;;3.50;;
41514;SDS011;27247;48.020;16.720;2023-10-09T10:09:06;7.88;;;2.55;;
41514;SDS011;27247;48.020;16.720;2023-10-09T10:13:17;5.18;;;2.00;;
41514;SDS011;27247;48.020;16.720;2023-10-09T10:22:29;5.15;;;2.60;;
41514;SDS011;27247;48.020;16.720;2023-10-09T10:26:40;4.65;;;2.25;;
41514;SDS011;27247;48.020;16.720;2023-10-09T10:30:51;13.20;;;2.90;;
41514;SDS011;27247;48.020;16.720;2023-10-09T10:35:01;5.72;;;2.88;;
41514;SDS011;27247;48.020;16.720;2023-10-09T10:39:16;6.90;;;2.70;;
41514;SDS011;27247;48.020;16.720;2023-10-09T10:43:26;8.73;;;2.67;;
41514;SDS011;27247;48.020;16.720;2023-10-09T10:47:44;7.53;;;2.20;;
41514;SDS011;27247;48.020;16.720;2023-10-09T10:51:57;13.15;;;3.42;;
41514;SDS011;27247;48.020;16.720;2023-10-09T10:56:28;8.80;;;2.55;;
41514;SDS011;27247;48.020;16.720;2023-10-09T11:00:51;6.30;;;2.60;;
41514;SDS011;27247;48.020;16.720;2023-10-09T11:05:07;7.13;;;2.25;;
41514;SDS011;27247;48.020;16.720;2023-10-09T11:09:24;6.40;;;3.08;;
41514;SDS011;27247;48.020;16.720;2023-10-09T11:13:45;7.28;;;2.88;;
41514;SDS011;27247;48.020;16.720;2023-10-09T11:18:08;12.93;;;3.47;;
41514;SDS011;27247;48.020;16.720;2023-10-09T11:22:28;11.68;;;3.42;;
41514;SDS011;27247;48.020;16.720;2023-10-09T11:26:38;13.15;;;3.30;;
41514;SDS011;27247;48.020;16.720;2023-10-09T11:30:51;7.13;;;3.38;;
41514;SDS011;27247;48.020;16.720;2023-10-09T11:35:12;10.00;;;3.50;;
41514;SDS011;27247;48.020;16.720;2023-10-09T11:39:38;10.60;;;3.60;;
41514;SDS011;27247;48.020;16.720;2023-10-09T11:44:01;13.38;;;4.47;;
41514;SDS011;27247;48.020;16.720;2023-10-09T11:48:17;10.43;;;3.95;;
41514;SDS011;27247;48.020;16.720;2023-10-09T11:57:18;13.02;;;4.55;;
41514;SDS011;27247;48.020;16.720;2023-10-09T12:01:30;13.50;;;4.32;;
41514;SDS011;27247;48.020;16.720;2023-10-09T12:05:45;13.18;;;4.32;;
41514;SDS011;27247;48.020;16.720;2023-10-09T12:09:56;13.63;;;5.20;;
41514;SDS011;27247;48.020;16.720;2023-10-09T12:14:06;10.80;;;4.65;;
41514;SDS011;27247;48.020;16.720;2023-10-09T12:18:17;10.67;;;4.30;;
41514;SDS011;27247;48.020;16.720;2023-10-09T12:22:28;10.00;;;5.13;;
41514;SDS011;27247;48.020;16.720;2023-10-09T12:26:39;12.45;;;4.97;;
41514;SDS011;27247;48.020;16.720;2023-10-09T12:30:50;17.48;;;5.57;;
41514;SDS011;27247;48.020;16.720;2023-10-09T12:35:01;11.40;;;5.13;;
41514;SDS011;27247;48.020;16.720;2023-10-09T12:39:11;14.32;;;5.13;;
41514;SDS011;27247;48.020;16.720;2023-10-09T12:43:27;11.85;;;5.53;;
41514;SDS011;27247;48.020;16.720;2023-10-09T12:47:38;12.53;;;5.57;;
41514;SDS011;27247;48.020;16.720;2023-10-09T12:51:48;13.40;;;6.53;;
41514;SDS011;27247;48.020;16.720;2023-10-09T12:55:58;14.97;;;7.33;;
41514;SDS011;27247;48.020;16.720;2023-10-09T13:00:09;16.20;;;7.17;;
41514;SDS011;27247;48.020;16.720;2023-10-09T13:04:21;16.33;;;6.07;;
41514;SDS011;27247;48.020;16.720;2023-10-09T13:08:32;13.45;;;7.03;;
41514;SDS011;27247;48.020;16.720;2023-10-09T13:12:45;17.08;;;6.47;;
41514;SDS011;27247;48.020;16.720;2023-10-09T13:16:56;18.77;;;6.43;;
41514;SDS011;27247;48.020;16.720;2023-10-09T13:21:06;19.37;;;6.67;;
41514;SDS011;27247;48.020;16.720;2023-10-09T13:25:16;14.37;;;6.43;;
41514;SDS011;27247;48.020;16.720;2023-10-09T13:29:27;12.88;;;6.45;;
41514;SDS011;27247;48.020;16.720;2023-10-09T13:33:39;16.33;;;7.00;;
41514;SDS011;27247;48.020;16.720;2023-10-09T13:37:50;16.70;;;7.10;;
41514;SDS011;27247;48.020;16.720;2023-10-09T13:42:06;20.45;;;7.35;;
41514;SDS011;27247;48.020;16.720;2023-10-09T13:46:17;22.23;;;6.57;;
41514;SDS011;27247;48.020;16.720;2023-10-09T13:50:28;12.48;;;6.88;;
41514;SDS011;27247;48.020;16.720;2023-10-09T13:54:42;16.55;;;7.00;;
41514;SDS011;27247;48.020;16.720;2023-10-09T13:58:53;16.70;;;7.78;;
41514;SDS011;27247;48.020;16.720;2023-10-09T14:03:05;15.40;;;6.93;;
41514;SDS011;27247;48.020;16.720;2023-10-09T14:07:22;20.27;;;7.40;;
41514;SDS011;27247;48.020;16.720;2023-10-09T14:11:33;17.05;;;7.97;;
41514;SDS011;27247;48.020;16.720;2023-10-09T14:15:47;30.10;;;8.70;;
41514;SDS011;27247;48.020;16.720;2023-10-09T14:19:58;17.83;;;7.90;;
41514;SDS011;27247;48.020;16.720;2023-10-09T14:24:29;25.52;;;10.10;;
41514;SDS011;27247;48.020;16.720;2023-10-09T14:28:43;19.67;;;8.65;;
41514;SDS011;27247;48.020;16.720;2023-10-09T14:32:53;20.83;;;8.65;;
41514;SDS011;27247;48.020;16.720;2023-10-09T14:37:06;25.33;;;8.50;;
41514;SDS011;27247;48.020;16.720;2023-10-09T14:41:17;24.05;;;9.05;;
41514;SDS011;27247;48.020;16.720;2023-10-09T14:45:27;23.75;;;9.50;;
41514;SDS011;27247;48.020;16.720;2023-10-09T14:49:38;23.33;;;9.65;;
41514;SDS011;27247;48.020;16.720;2023-10-09T14:53:54;27.48;;;9.27;;
41514;SDS011;27247;48.020;16.720;2023-10-09T14:58:08;23.63;;;9.30;;
41514;SDS011;27247;48.020;16.720;2023-10-09T15:02:21;18.92;;;8.18;;
41514;SDS011;27247;48.020;16.720;2023-10-09T15:06:33;22.50;;;8.32;;
41514;SDS011;27247;48.020;16.720;2023-10-09T15:10:45;21.33;;;8.95;;
41514;SDS011;27247;48.020;16.720;2023-10-09T15:15:01;24.13;;;8.35;;
41514;SDS011;27247;48.020;16.720;2023-10-09T15:19:21;19.17;;;7.75;;
41514;SDS011;27247;48.020;16.720;2023-10-09T15:23:39;29.25;;;10.45;;
41514;SDS011;27247;48.020;16.720;2023-10-09T15:27:49;30.17;;;9.87;;
41514;SDS011;27247;48.020;16.720;2023-10-09T15:32:00;29.38;;;9.55;;
41514;SDS011;27247;48.020;16.720;2023-10-09T15:36:15;27.10;;;9.68;;
41514;SDS011;27247;48.020;16.720;2023-10-09T15:40:38;24.90;;;8.65;;
41514;SDS011;27247;48.020;16.720;2023-10-09T15:44:52;29.35;;;9.52;;
41514;SDS011;27247;48.020;16.720;2023-10-09T15:49:04;24.60;;;9.07;;
41514;SDS011;27247;48.020;16.720;2023-10-09T15:53:17;21.67;;;8.05;;
41514;SDS011;27247;48.020;16.720;2023-10-09T15:57:28;23.52;;;8.90;;
41514;SDS011;27247;48.020;16.720;2023-10-09T16:01:40;15.73;;;8.40;;
41514;SDS011;27247;48.020;16.720;2023-10-09T16:05:52;20.88;;;9.07;;
41514;SDS011;27247;48.020;16.720;2023-10-09T16:10:03;21.48;;;8.05;;
41514;SDS011;27247;48.020;16.720;2023-10-09T16:14:15;21.00;;;7.55;;
41514;SDS011;27247;48.020;16.720;2023-10-09T16:18:25;22.83;;;9.20;;
41514;SDS011;27247;48.020;16.720;2023-10-09T16:22:37;20.50;;;8.55;;
41514;SDS011;27247;48.020;16.720;2023-10-09T16:26:48;22.50;;;8.82;;
41514;SDS011;27247;48.020;16.720;2023-10-09T16:31:01;26.40;;;8.75;;
41514;SDS011;27247;48.020;16.720;2023-10-09T16:35:12;28.20;;;8.77;;
41514;SDS011;27247;48.020;16.720;2023-10-09T16:39:22;29.73;;;9.88;;
41514;SDS011;27247;48.020;16.720;2023-10-09T16:43:33;20.67;;;7.15;;
41514;SDS011;27247;48.020;16.720;2023-10-09T16:47:47;20.38;;;7.88;;
41514;SDS011;27247;48.020;16.720;2023-10-09T16:51:58;20.40;;;8.18;;
41514;SDS011;27247;48.020;16.720;2023-10-09T16:56:09;18.50;;;7.88;;
41514;SDS011;27247;48.020;16.720;2023-10-09T17:00:21;15.73;;;7.53;;
41514;SDS011;27247;48.020;16.720;2023-10-09T17:04:44;20.88;;;8.00;;
41514;SDS011;27247;48.020;16.720;2023-10-09T17:08:56;21.48;;;6.50;;
41514;SDS011;27247;48.020;16.720;2023-10-09T17:13:07;21.55;;;6.40;;
41514;SDS011;27247;48.020;16.720;2023-10-09T17:17:18;26.63;;;7.93;;
41514;SDS011;27247;48.020;16.720;2023-10-09T17:21:30;15.68;;;6.50;;
41514;SDS011;27247;48.020;16.720;2023-10-09T17:25:46;23.25;;;6.97;;
41514;SDS011;27247;48.020;16.720;2023-10-09T17:29:57;18.40;;;7.13;;
41514;SDS011;27247;48.020;16.720;2023-10-09T17:34:08;20.80;;;6.75;;
41514;SDS011;27247;48.020;16.720;2023-10-09T17:38:19;17.20;;;7.18;;
41514;SDS011;27247;48.020;16.720;2023-10-09T17:42:30;13.75;;;7.07;;
41514;SDS011;27247;48.020;16.720;2023-10-09T17:46:41;15.55;;;6.50;;
41514;SDS011;27247;48.020;16.720;2023-10-09T17:50:52;19.40;;;6.70;;
41514;SDS011;27247;48.020;16.720;2023-10-09T17:55:06;17.23;;;7.53;;
41514;SDS011;27247;48.020;16.720;2023-10-09T17:59:21;23.40;;;8.68;;
41514;SDS011;27247;48.020;16.720;2023-10-09T18:03:32;18.38;;;9.13;;
41514;SDS011;27247;48.020;16.720;2023-10-09T18:07:48;21.23;;;8.95;;
41514;SDS011;27247;48.020;16.720;2023-10-09T18:12:00;22.90;;;9.50;;
41514;SDS011;27247;48.020;16.720;2023-10-09T18:16:14;21.60;;;9.52;;
41514;SDS011;27247;48.020;16.720;2023-10-09T18:20:28;21.90;;;9.30;;
41514;SDS011;27247;48.020;16.720;2023-10-09T18:24:41;17.75;;;8.73;;
41514;SDS011;27247;48.020;16.720;2023-10-09T18:28:52;20.92;;;9.57;;
41514;SDS011;27247;48.020;16.720;2023-10-09T18:33:03;22.60;;;9.80;;
41514;SDS011;27247;48.020;16.720;2023-10-09T18:37:13;21.35;;;10.88;;
41514;SDS011;27247;48.020;16.720;2023-10-09T18:41:24;20.45;;;9.32;;
41514;SDS011;27247;48.020;16.720;2023-10-09T18:45:39;19.02;;;9.05;;
41514;SDS011;27247;48.020;16.720;2023-10-09T18:49:50;16.98;;;8.88;;
41514;SDS011;27247;48.020;16.720;2023-10-09T18:54:02;23.63;;;8.90;;
41514;SDS011;27247;48.020;16.720;2023-10-09T18:58:15;21.90;;;8.88;;
41514;SDS011;27247;48.020;16.720;2023-10-09T19:02:28;19.17;;;8.73;;
41514;SDS011;27247;48.020;16.720;2023-10-09T19:06:39;18.67;;;8.00;;
41514;SDS011;27247;48.020;16.720;2023-10-09T19:11:01;20.38;;;7.10;;
41514;SDS011;27247;48.020;16.720;2023-10-09T19:15:19;20.23;;;8.68;;
41514;SDS011;27247;48.020;16.720;2023-10-09T19:19:30;14.80;;;6.32;;
41514;SDS011;27247;48.020;16.720;2023-10-09T19:23:41;21.75;;;6.90;;
41514;SDS011;27247;48.020;16.720;2023-10-09T19:27:56;15.98;;;6.85;;
41514;SDS011;27247;48.020;16.720;2023-10-09T19:32:07;15.98;;;6.72;;
41514;SDS011;27247;48.020;16.720;2023-10-09T19:36:18;13.90;;;5.75;;
41514;SDS011;27247;48.020;16.720;2023-10-09T19:40:35;16.25;;;5.65;;
41514;SDS011;27247;48.020;16.720;2023-10-09T19:44:48;21.95;;;6.32;;
41514;SDS011;27247;48.020;16.720;2023-10-09T19:49:02;15.80;;;5.60;;
41514;SDS011;27247;48.020;16.720;2023-10-09T19:53:13;26.38;;;10.50;;
41514;SDS011;27247;48.020;16.720;2023-10-09T19:57:24;21.40;;;6.43;;
41514;SDS011;27247;48.020;16.720;2023-10-09T20:01:36;16.30;;;5.95;;
41514;SDS011;27247;48.020;16.720;2023-10-09T20:05:50;16.98;;;6.22;;
41514;SDS011;27247;48.020;16.720;2023-10-09T20:10:01;15.27;;;5.63;;
41514;SDS011;27247;48.020;16.720;2023-10-09T20:14:17;21.30;;;6.50;;
41514;SDS011;27247;48.020;16.720;2023-10-09T20:18:28;19.83;;;5.75;;
41514;SDS011;27247;48.020;16.720;2023-10-09T20:22:41;15.73;;;6.88;;
41514;SDS011;27247;48.020;16.720;2023-10-09T20:26:51;17.98;;;6.05;;
41514;SDS011;27247;48.020;16.720;2023-10-09T20:31:02;20.10;;;5.90;;
41514;SDS011;27247;48.020;16.720;2023-10-09T20:35:13;16.83;;;5.38;;
41514;SDS011;27247;48.020;16.720;2023-10-09T20:39:25;12.88;;;5.00;;
41514;SDS011;27247;48.020;16.720;2023-10-09T20:43:36;13.75;;;5.53;;
41514;SDS011;27247;48.020;16.720;2023-10-09T20:47:51;15.52;;;6.35;;
41514;SDS011;27247;48.020;16.720;2023-10-09T20:52:04;21.48;;;6.07;;
41514;SDS011;27247;48.020;16.720;2023-10-09T20:56:16;20.77;;;5.70;;
41514;SDS011;27247;48.020;16.720;2023-10-09T21:00:27;17.05;;;5.65;;
41514;SDS011;27247;48.020;16.720;2023-10-09T21:04:42;17.83;;;5.80;;
41514;SDS011;27247;48.020;16.720;2023-10-09T21:08:52;14.27;;;5.78;;
41514;SDS011;27247;48.020;16.720;2023-10-09T21:13:03;18.33;;;6.03;;
41514;SDS011;27247;48.020;16.720;2023-10-09T21:17:13;16.98;;;6.72;;
41514;SDS011;27247;48.020;16.720;2023-10-09T21:21:25;22.20;;;6.00;;
41514;SDS011;27247;48.020;16.720;2023-10-09T21:25:39;17.23;;;6.25;;
41514;SDS011;27247;48.020;16.720;2023-10-09T21:29:50;22.83;;;6.30;;
41514;SDS011;27247;48.020;16.720;2023-10-09T21:34:00;20.80;;;5.97;;
41514;SDS011;27247;48.020;16.720;2023-10-09T21:38:11;15.20;;;5.50;;
41514;SDS011;27247;48.020;16.720;2023-10-09T21:42:21;19.33;;;5.78;;
41514;SDS011;27247;48.020;16.720;2023-10-09T21:46:31;14.40;;;6.25;;
41514;SDS011;27247;48.020;16.720;2023-10-09T21:50:42;16.57;;;6.20;;
41514;SDS011;27247;48.020;16.720;2023-10-09T21:54:53;25.08;;;7.70;;
41514;SDS011;27247;48.020;16.720;2023-10-09T21:59:03;16.50;;;6.23;;
41514;SDS011;27247;48.020;16.720;2023-10-09T22:03:14;16.65;;;5.75;;
41514;SDS011;27247;48.020;16.720;2023-10-09T22:07:25;11.98;;;5.65;;
41514;SDS011;27247;48.020;16.720;2023-10-09T22:11:36;22.73;;;7.10;;
41514;SDS011;27247;48.020;16.720;2023-10-09T22:15:46;19.07;;;6.20;;
41514;SDS011;27247;48.020;16.720;2023-10-09T22:19:58;17.70;;;6.45;;
41514;SDS011;27247;48.020;16.720;2023-10-09T22:24:10;18.17;;;6.70;;
41514;SDS011;27247;48.020;16.720;2023-10-09T22:28:28;20.75;;;6.65;;
41514;SDS011;27247;48.020;16.720;2023-10-09T22:32:39;21.05;;;7.28;;
41514;SDS011;27247;48.020;16.720;2023-10-09T22:36:52;24.00;;;6.72;;
41514;SDS011;27247;48.020;16.720;2023-10-09T22:41:04;15.43;;;6.10;;
41514;SDS011;27247;48.020;16.720;2023-10-09T22:45:16;18.33;;;6.45;;
41514;SDS011;27247;48.020;16.720;2023-10-09T22:49:40;19.65;;;6.47;;
41514;SDS011;27247;48.020;16.720;2023-10-09T22:53:54;15.13;;;5.90;;
41514;SDS011;27247;48.020;16.720;2023-10-09T22:58:05;17.20;;;6.47;;
41514;SDS011;27247;48.020;16.720;2023-10-09T23:02:21;17.77;;;6.18;;
41514;SDS011;27247;48.020;16.720;2023-10-09T23:06:32;21.23;;;7.00;;
41514;SDS011;27247;48.020;16.720;2023-10-09T23:10:44;23.48;;;6.43;;
41514;SDS011;27247;48.020;16.720;2023-10-09T23:15:00;17.95;;;6.40;;
41514;SDS011;27247;48.020;16.720;2023-10-09T23:19:19;22.60;;;6.47;;
41514;SDS011;27247;48.020;16.720;2023-10-09T23:23:48;17.05;;;6.93;;
41514;SDS011;27247;48.020;16.720;2023-10-09T23:28:00;17.38;;;6.65;;
41514;SDS011;27247;48.020;16.720;2023-10-09T23:32:31;16.92;;;6.03;;
41514;SDS011;27247;48.020;16.720;2023-10-09T23:36:42;17.95;;;7.03;;
41514;SDS011;27247;48.020;16.720;2023-10-09T23:40:53;18.42;;;6.53;;
41514;SDS011;27247;48.020;16.720;2023-10-09T23:45:04;16.83;;;7.17;;
41514;SDS011;27247;48.020;16.720;2023-10-09T23:49:17;18.98;;;7.00;;
41514;SDS011;27247;48.020;16.720;2023-10-09T23:53:31;18.70;;;6.72;;
41514;SDS011;27247;48.020;16.720;2023-10-09T23:57:46;14.60;;;6.45;;
